sensor_id;sensor_type;location;lat;lon;timestamp;P1;durP1;ratioP1;P2;durP2;ratioP2
65077;SDS011;51672;51.230;-2.322;2022-08-19T00:00:20;3.40;;;0.60;;
65077;SDS011;51672;51.230;-2.322;2022-08-19T00:04:03;2.35;;;0.57;;
65077;SDS011;51672;51.230;-2.322;2022-08-19T00:07:47;1.38;;;0.30;;
65077;SDS011;51672;51.230;-2.322;2022-08-19T00:11:31;1.73;;;0.30;;
65077;SDS011;51672;51.230;-2.322;2022-08-19T00:15:14;1.67;;;0.38;;
65077;SDS011;51672;51.230;-2.322;2022-08-19T00:18:58;2.15;;;0.50;;
65077;SDS011;51672;51.230;-2.322;2022-08-19T00:22:41;2.30;;;0.60;;
65077;SDS011;51672;51.230;-2.322;2022-08-19T00:26:24;2.08;;;0.40;;
65077;SDS011;51672;51.230;-2.322;2022-08-19T00:30:07;1.73;;;0.40;;
65077;SDS011;51672;51.230;-2.322;2022-08-19T00:33:51;1.77;;;0.32;;
65077;SDS011;51672;51.230;-2.322;2022-08-19T00:37:33;5.27;;;0.40;;
65077;SDS011;51672;51.230;-2.322;2022-08-19T00:41:16;1.92;;;0.30;;
65077;SDS011;51672;51.230;-2.322;2022-08-19T00:45:02;1.70;;;0.40;;
65077;SDS011;51672;51.230;-2.322;2022-08-19T00:48:52;1.90;;;0.30;;
65077;SDS011;51672;51.230;-2.322;2022-08-19T00:52:36;2.65;;;0.30;;
65077;SDS011;51672;51.230;-2.322;2022-08-19T00:56:25;2.88;;;0.30;;
65077;SDS011;51672;51.230;-2.322;2022-08-19T01:00:11;2.17;;;0.47;;
65077;SDS011;51672;51.230;-2.322;2022-08-19T01:03:55;2.15;;;0.40;;
65077;SDS011;51672;51.230;-2.322;2022-08-19T01:07:39;1.67;;;0.30;;
65077;SDS011;51672;51.230;-2.322;2022-08-19T01:11:22;1.65;;;0.40;;
65077;SDS011;51672;51.230;-2.322;2022-08-19T01:15:05;1.80;;;0.30;;
65077;SDS011;51672;51.230;-2.322;2022-08-19T01:18:49;2.20;;;0.38;;
65077;SDS011;51672;51.230;-2.322;2022-08-19T01:22:33;1.95;;;0.45;;
65077;SDS011;51672;51.230;-2.322;2022-08-19T01:26:20;2.37;;;0.50;;
65077;SDS011;51672;51.230;-2.322;2022-08-19T01:30:06;2.00;;;0.52;;
65077;SDS011;51672;51.230;-2.322;2022-08-19T01:33:49;1.90;;;0.30;;
65077;SDS011;51672;51.230;-2.322;2022-08-19T01:37:43;2.22;;;0.30;;
65077;SDS011;51672;51.230;-2.322;2022-08-19T01:41:28;1.60;;;0.30;;
65077;SDS011;51672;51.230;-2.322;2022-08-19T01:45:10;1.85;;;0.30;;
65077;SDS011;51672;51.230;-2.322;2022-08-19T01:48:52;2.25;;;0.30;;
65077;SDS011;51672;51.230;-2.322;2022-08-19T01:52:35;2.63;;;0.50;;
65077;SDS011;51672;51.230;-2.322;2022-08-19T01:56:19;5.65;;;1.95;;
65077;SDS011;51672;51.230;-2.322;2022-08-19T02:00:04;4.55;;;1.40;;
65077;SDS011;51672;51.230;-2.322;2022-08-19T02:03:48;2.87;;;0.37;;
65077;SDS011;51672;51.230;-2.322;2022-08-19T02:07:30;3.47;;;0.57;;
65077;SDS011;51672;51.230;-2.322;2022-08-19T02:11:18;3.45;;;0.47;;
65077;SDS011;51672;51.230;-2.322;2022-08-19T02:15:07;2.28;;;0.43;;
65077;SDS011;51672;51.230;-2.322;2022-08-19T02:18:50;2.33;;;0.30;;
65077;SDS011;51672;51.230;-2.322;2022-08-19T02:22:32;2.40;;;0.40;;
65077;SDS011;51672;51.230;-2.322;2022-08-19T02:26:15;2.00;;;0.40;;
65077;SDS011;51672;51.230;-2.322;2022-08-19T02:29:57;3.17;;;0.57;;
65077;SDS011;51672;51.230;-2.322;2022-08-19T02:33:39;2.42;;;0.47;;
65077;SDS011;51672;51.230;-2.322;2022-08-19T02:37:22;4.95;;;0.40;;
65077;SDS011;51672;51.230;-2.322;2022-08-19T02:41:23;3.77;;;0.40;;
65077;SDS011;51672;51.230;-2.322;2022-08-19T02:45:11;3.10;;;0.40;;
65077;SDS011;51672;51.230;-2.322;2022-08-19T02:53:17;2.42;;;0.70;;
65077;SDS011;51672;51.230;-2.322;2022-08-19T02:57:00;5.97;;;0.70;;
65077;SDS011;51672;51.230;-2.322;2022-08-19T03:00:42;5.78;;;0.70;;
65077;SDS011;51672;51.230;-2.322;2022-08-19T03:04:26;3.40;;;0.63;;
65077;SDS011;51672;51.230;-2.322;2022-08-19T03:08:08;3.80;;;0.70;;
65077;SDS011;51672;51.230;-2.322;2022-08-19T03:11:53;3.50;;;0.50;;
65077;SDS011;51672;51.230;-2.322;2022-08-19T03:15:38;4.78;;;0.70;;
65077;SDS011;51672;51.230;-2.322;2022-08-19T03:19:20;3.03;;;0.67;;
65077;SDS011;51672;51.230;-2.322;2022-08-19T03:23:02;3.55;;;0.60;;
65077;SDS011;51672;51.230;-2.322;2022-08-19T03:26:46;4.95;;;0.93;;
65077;SDS011;51672;51.230;-2.322;2022-08-19T03:30:30;4.78;;;0.70;;
65077;SDS011;51672;51.230;-2.322;2022-08-19T03:34:18;5.82;;;0.95;;
65077;SDS011;51672;51.230;-2.322;2022-08-19T03:38:03;3.85;;;0.73;;
65077;SDS011;51672;51.230;-2.322;2022-08-19T03:41:46;6.70;;;0.90;;
65077;SDS011;51672;51.230;-2.322;2022-08-19T03:45:59;6.70;;;0.90;;
65077;SDS011;51672;51.230;-2.322;2022-08-19T03:49:49;7.97;;;0.93;;
65077;SDS011;51672;51.230;-2.322;2022-08-19T03:53:31;7.03;;;1.08;;
65077;SDS011;51672;51.230;-2.322;2022-08-19T03:57:14;5.77;;;1.10;;
65077;SDS011;51672;51.230;-2.322;2022-08-19T04:00:56;8.43;;;1.10;;
65077;SDS011;51672;51.230;-2.322;2022-08-19T04:04:40;7.80;;;1.23;;
65077;SDS011;51672;51.230;-2.322;2022-08-19T04:08:24;7.22;;;0.93;;
65077;SDS011;51672;51.230;-2.322;2022-08-19T04:12:07;7.47;;;1.00;;
65077;SDS011;51672;51.230;-2.322;2022-08-19T04:15:49;7.22;;;1.10;;
65077;SDS011;51672;51.230;-2.322;2022-08-19T04:19:32;8.15;;;1.00;;
65077;SDS011;51672;51.230;-2.322;2022-08-19T04:23:14;7.80;;;1.10;;
65077;SDS011;51672;51.230;-2.322;2022-08-19T04:26:58;9.23;;;1.63;;
65077;SDS011;51672;51.230;-2.322;2022-08-19T04:30:45;8.75;;;1.42;;
65077;SDS011;51672;51.230;-2.322;2022-08-19T04:34:30;7.73;;;1.23;;
65077;SDS011;51672;51.230;-2.322;2022-08-19T04:38:13;8.70;;;1.30;;
65077;SDS011;51672;51.230;-2.322;2022-08-19T04:41:56;11.80;;;1.55;;
65077;SDS011;51672;51.230;-2.322;2022-08-19T04:45:56;11.85;;;2.10;;
65077;SDS011;51672;51.230;-2.322;2022-08-19T04:49:41;13.15;;;1.70;;
65077;SDS011;51672;51.230;-2.322;2022-08-19T04:53:27;10.27;;;1.65;;
65077;SDS011;51672;51.230;-2.322;2022-08-19T04:57:18;11.00;;;1.75;;
65077;SDS011;51672;51.230;-2.322;2022-08-19T05:01:00;12.07;;;2.17;;
65077;SDS011;51672;51.230;-2.322;2022-08-19T05:04:42;11.70;;;2.00;;
65077;SDS011;51672;51.230;-2.322;2022-08-19T05:08:24;14.27;;;1.70;;
65077;SDS011;51672;51.230;-2.322;2022-08-19T05:12:11;13.23;;;2.03;;
65077;SDS011;51672;51.230;-2.322;2022-08-19T05:15:55;11.95;;;1.42;;
65077;SDS011;51672;51.230;-2.322;2022-08-19T05:19:39;9.50;;;1.70;;
65077;SDS011;51672;51.230;-2.322;2022-08-19T05:23:40;10.82;;;1.70;;
65077;SDS011;51672;51.230;-2.322;2022-08-19T05:27:22;9.05;;;1.55;;
65077;SDS011;51672;51.230;-2.322;2022-08-19T05:31:04;12.25;;;1.63;;
65077;SDS011;51672;51.230;-2.322;2022-08-19T05:34:46;12.38;;;1.90;;
65077;SDS011;51672;51.230;-2.322;2022-08-19T05:38:28;10.07;;;1.67;;
65077;SDS011;51672;51.230;-2.322;2022-08-19T05:42:11;12.93;;;1.80;;
65077;SDS011;51672;51.230;-2.322;2022-08-19T05:45:53;13.52;;;1.73;;
65077;SDS011;51672;51.230;-2.322;2022-08-19T05:49:36;14.43;;;2.00;;
65077;SDS011;51672;51.230;-2.322;2022-08-19T05:53:19;9.10;;;1.63;;
65077;SDS011;51672;51.230;-2.322;2022-08-19T05:57:01;10.75;;;1.67;;
65077;SDS011;51672;51.230;-2.322;2022-08-19T06:00:43;9.82;;;1.77;;
65077;SDS011;51672;51.230;-2.322;2022-08-19T06:04:26;11.90;;;1.60;;
65077;SDS011;51672;51.230;-2.322;2022-08-19T06:08:08;11.07;;;1.90;;
65077;SDS011;51672;51.230;-2.322;2022-08-19T06:11:51;9.85;;;1.88;;
65077;SDS011;51672;51.230;-2.322;2022-08-19T06:15:36;9.27;;;1.70;;
65077;SDS011;51672;51.230;-2.322;2022-08-19T06:19:19;11.82;;;1.80;;
65077;SDS011;51672;51.230;-2.322;2022-08-19T06:27:50;11.40;;;2.00;;
65077;SDS011;51672;51.230;-2.322;2022-08-19T06:36:03;11.80;;;1.80;;
65077;SDS011;51672;51.230;-2.322;2022-08-19T06:44:40;10.70;;;1.88;;
65077;SDS011;51672;51.230;-2.322;2022-08-19T06:52:20;7.40;;;1.70;;
65077;SDS011;51672;51.230;-2.322;2022-08-19T07:05:02;11.80;;;2.20;;
65077;SDS011;51672;51.230;-2.322;2022-08-19T07:08:47;7.50;;;1.40;;
65077;SDS011;51672;51.230;-2.322;2022-08-19T07:12:36;9.63;;;2.03;;
65077;SDS011;51672;51.230;-2.322;2022-08-19T07:16:19;8.60;;;1.70;;
65077;SDS011;51672;51.230;-2.322;2022-08-19T07:20:09;7.00;;;1.50;;
65077;SDS011;51672;51.230;-2.322;2022-08-19T07:28:46;7.90;;;1.40;;
65077;SDS011;51672;51.230;-2.322;2022-08-19T07:32:33;6.78;;;1.67;;
65077;SDS011;51672;51.230;-2.322;2022-08-19T07:36:33;7.13;;;1.67;;
65077;SDS011;51672;51.230;-2.322;2022-08-19T07:40:19;9.57;;;1.45;;
65077;SDS011;51672;51.230;-2.322;2022-08-19T07:44:08;7.40;;;1.17;;
65077;SDS011;51672;51.230;-2.322;2022-08-19T08:00:24;7.50;;;1.60;;
65077;SDS011;51672;51.230;-2.322;2022-08-19T08:16:57;5.83;;;1.47;;
65077;SDS011;51672;51.230;-2.322;2022-08-19T08:20:41;7.15;;;1.60;;
65077;SDS011;51672;51.230;-2.322;2022-08-19T08:24:53;7.60;;;1.48;;
65077;SDS011;51672;51.230;-2.322;2022-08-19T08:32:57;8.05;;;1.73;;
65077;SDS011;51672;51.230;-2.322;2022-08-19T08:40:48;9.73;;;2.22;;
65077;SDS011;51672;51.230;-2.322;2022-08-19T08:45:17;6.40;;;2.30;;
65077;SDS011;51672;51.230;-2.322;2022-08-19T08:53:13;9.07;;;1.65;;
65077;SDS011;51672;51.230;-2.322;2022-08-19T09:18:01;6.70;;;1.85;;
65077;SDS011;51672;51.230;-2.322;2022-08-19T09:34:54;7.13;;;2.67;;
65077;SDS011;51672;51.230;-2.322;2022-08-19T09:43:35;7.13;;;1.75;;
65077;SDS011;51672;51.230;-2.322;2022-08-19T09:51:38;9.20;;;1.73;;
65077;SDS011;51672;51.230;-2.322;2022-08-19T09:59:45;9.20;;;1.92;;
65077;SDS011;51672;51.230;-2.322;2022-08-19T10:07:36;8.67;;;2.23;;
65077;SDS011;51672;51.230;-2.322;2022-08-19T10:20:01;7.67;;;1.80;;
65077;SDS011;51672;51.230;-2.322;2022-08-19T10:27:48;6.53;;;1.88;;
65077;SDS011;51672;51.230;-2.322;2022-08-19T10:35:58;6.43;;;1.63;;
65077;SDS011;51672;51.230;-2.322;2022-08-19T10:40:00;7.95;;;2.15;;
65077;SDS011;51672;51.230;-2.322;2022-08-19T10:43:44;10.05;;;2.63;;
65077;SDS011;51672;51.230;-2.322;2022-08-19T10:51:33;7.88;;;2.33;;
65077;SDS011;51672;51.230;-2.322;2022-08-19T11:00:13;7.33;;;1.60;;
65077;SDS011;51672;51.230;-2.322;2022-08-19T11:03:56;6.28;;;2.00;;
65077;SDS011;51672;51.230;-2.322;2022-08-19T11:20:52;7.65;;;1.90;;
65077;SDS011;51672;51.230;-2.322;2022-08-19T11:28:38;7.97;;;1.93;;
65077;SDS011;51672;51.230;-2.322;2022-08-19T11:36:38;7.72;;;2.10;;
65077;SDS011;51672;51.230;-2.322;2022-08-19T11:40:57;7.63;;;1.43;;
65077;SDS011;51672;51.230;-2.322;2022-08-19T11:48:57;5.97;;;1.40;;
65077;SDS011;51672;51.230;-2.322;2022-08-19T12:01:18;6.68;;;1.60;;
65077;SDS011;51672;51.230;-2.322;2022-08-19T12:09:08;6.93;;;1.33;;
65077;SDS011;51672;51.230;-2.322;2022-08-19T12:17:09;8.30;;;1.75;;
65077;SDS011;51672;51.230;-2.322;2022-08-19T12:25:04;8.40;;;2.05;;
65077;SDS011;51672;51.230;-2.322;2022-08-19T12:32:51;8.63;;;1.75;;
65077;SDS011;51672;51.230;-2.322;2022-08-19T12:40:51;9.47;;;1.60;;
65077;SDS011;51672;51.230;-2.322;2022-08-19T12:44:56;8.05;;;1.67;;
65077;SDS011;51672;51.230;-2.322;2022-08-19T12:48:39;7.22;;;1.42;;
65077;SDS011;51672;51.230;-2.322;2022-08-19T13:10:07;8.10;;;1.40;;
65077;SDS011;51672;51.230;-2.322;2022-08-19T13:17:54;7.88;;;1.70;;
65077;SDS011;51672;51.230;-2.322;2022-08-19T13:30:19;6.90;;;1.80;;
65077;SDS011;51672;51.230;-2.322;2022-08-19T13:34:36;11.43;;;1.97;;
65077;SDS011;51672;51.230;-2.322;2022-08-19T13:38:20;7.93;;;1.42;;
65077;SDS011;51672;51.230;-2.322;2022-08-19T13:42:43;9.25;;;1.55;;
65077;SDS011;51672;51.230;-2.322;2022-08-19T13:59:36;8.82;;;1.63;;
65077;SDS011;51672;51.230;-2.322;2022-08-19T14:07:23;8.30;;;1.80;;
65077;SDS011;51672;51.230;-2.322;2022-08-19T14:15:20;10.70;;;2.30;;
65077;SDS011;51672;51.230;-2.322;2022-08-19T14:23:11;9.55;;;1.60;;
65077;SDS011;51672;51.230;-2.322;2022-08-19T14:31:12;8.13;;;1.73;;
65077;SDS011;51672;51.230;-2.322;2022-08-19T14:35:27;13.68;;;1.70;;
65077;SDS011;51672;51.230;-2.322;2022-08-19T14:46:58;6.32;;;1.67;;
65077;SDS011;51672;51.230;-2.322;2022-08-19T14:54:47;7.90;;;1.27;;
65077;SDS011;51672;51.230;-2.322;2022-08-19T15:07:12;7.70;;;1.35;;
65077;SDS011;51672;51.230;-2.322;2022-08-19T15:15:01;7.88;;;1.48;;
65077;SDS011;51672;51.230;-2.322;2022-08-19T15:22:57;8.33;;;1.33;;
65077;SDS011;51672;51.230;-2.322;2022-08-19T15:30:51;7.90;;;1.00;;
65077;SDS011;51672;51.230;-2.322;2022-08-19T15:38:34;4.85;;;0.80;;
65077;SDS011;51672;51.230;-2.322;2022-08-19T15:46:37;5.80;;;0.80;;
65077;SDS011;51672;51.230;-2.322;2022-08-19T16:03:31;9.00;;;1.17;;
65077;SDS011;51672;51.230;-2.322;2022-08-19T16:07:48;4.45;;;0.80;;
65077;SDS011;51672;51.230;-2.322;2022-08-19T16:11:32;4.90;;;0.68;;
65077;SDS011;51672;51.230;-2.322;2022-08-19T16:15:51;6.60;;;1.13;;
65077;SDS011;51672;51.230;-2.322;2022-08-19T16:32:49;6.03;;;0.98;;
65077;SDS011;51672;51.230;-2.322;2022-08-19T16:58:43;7.83;;;1.20;;
65077;SDS011;51672;51.230;-2.322;2022-08-19T17:15:36;4.97;;;0.70;;
65077;SDS011;51672;51.230;-2.322;2022-08-19T17:23:28;4.18;;;0.73;;
65077;SDS011;51672;51.230;-2.322;2022-08-19T17:27:40;6.75;;;0.80;;
65077;SDS011;51672;51.230;-2.322;2022-08-19T17:31:24;6.93;;;0.90;;
65077;SDS011;51672;51.230;-2.322;2022-08-19T17:43:36;5.55;;;0.90;;
65077;SDS011;51672;51.230;-2.322;2022-08-19T17:51:40;6.22;;;0.90;;
65077;SDS011;51672;51.230;-2.322;2022-08-19T17:59:29;4.10;;;0.53;;
65077;SDS011;51672;51.230;-2.322;2022-08-19T18:07:25;7.32;;;1.00;;
65077;SDS011;51672;51.230;-2.322;2022-08-19T18:15:10;6.32;;;0.57;;
65077;SDS011;51672;51.230;-2.322;2022-08-19T18:27:42;4.47;;;0.63;;
65077;SDS011;51672;51.230;-2.322;2022-08-19T18:53:36;6.20;;;0.60;;
65077;SDS011;51672;51.230;-2.322;2022-08-19T19:01:28;6.20;;;0.50;;
65077;SDS011;51672;51.230;-2.322;2022-08-19T19:13:52;7.53;;;0.70;;
65077;SDS011;51672;51.230;-2.322;2022-08-19T19:25:59;8.13;;;0.77;;
65077;SDS011;51672;51.230;-2.322;2022-08-19T19:29:41;7.88;;;0.70;;
65077;SDS011;51672;51.230;-2.322;2022-08-19T19:33:27;8.53;;;1.10;;
65077;SDS011;51672;51.230;-2.322;2022-08-19T19:37:09;4.93;;;0.80;;
65077;SDS011;51672;51.230;-2.322;2022-08-19T19:40:51;9.00;;;0.80;;
65077;SDS011;51672;51.230;-2.322;2022-08-19T19:44:36;7.75;;;1.15;;
65077;SDS011;51672;51.230;-2.322;2022-08-19T19:48:19;6.75;;;0.73;;
65077;SDS011;51672;51.230;-2.322;2022-08-19T19:52:02;6.57;;;0.88;;
65077;SDS011;51672;51.230;-2.322;2022-08-19T19:55:44;7.40;;;0.70;;
65077;SDS011;51672;51.230;-2.322;2022-08-19T19:59:26;7.37;;;0.60;;
65077;SDS011;51672;51.230;-2.322;2022-08-19T20:03:08;4.03;;;0.63;;
65077;SDS011;51672;51.230;-2.322;2022-08-19T20:06:50;5.28;;;0.68;;
65077;SDS011;51672;51.230;-2.322;2022-08-19T20:10:33;4.80;;;0.70;;
65077;SDS011;51672;51.230;-2.322;2022-08-19T20:14:22;5.55;;;0.80;;
65077;SDS011;51672;51.230;-2.322;2022-08-19T20:18:05;6.07;;;0.70;;
65077;SDS011;51672;51.230;-2.322;2022-08-19T20:21:47;5.25;;;0.82;;
65077;SDS011;51672;51.230;-2.322;2022-08-19T20:25:31;7.10;;;0.70;;
65077;SDS011;51672;51.230;-2.322;2022-08-19T20:29:15;5.45;;;1.10;;
65077;SDS011;51672;51.230;-2.322;2022-08-19T20:33:18;8.93;;;1.60;;
65077;SDS011;51672;51.230;-2.322;2022-08-19T20:37:00;6.50;;;0.80;;
65077;SDS011;51672;51.230;-2.322;2022-08-19T20:40:42;10.63;;;1.73;;
65077;SDS011;51672;51.230;-2.322;2022-08-19T20:44:24;6.82;;;1.95;;
65077;SDS011;51672;51.230;-2.322;2022-08-19T20:48:07;9.13;;;2.00;;
65077;SDS011;51672;51.230;-2.322;2022-08-19T20:51:50;11.95;;;2.60;;
65077;SDS011;51672;51.230;-2.322;2022-08-19T20:55:32;8.77;;;2.03;;
65077;SDS011;51672;51.230;-2.322;2022-08-19T20:59:15;9.10;;;1.85;;
65077;SDS011;51672;51.230;-2.322;2022-08-19T21:02:57;10.98;;;2.40;;
65077;SDS011;51672;51.230;-2.322;2022-08-19T21:06:39;9.23;;;2.50;;
65077;SDS011;51672;51.230;-2.322;2022-08-19T21:10:25;8.50;;;2.38;;
65077;SDS011;51672;51.230;-2.322;2022-08-19T21:14:07;8.37;;;2.27;;
65077;SDS011;51672;51.230;-2.322;2022-08-19T21:17:50;7.32;;;1.73;;
65077;SDS011;51672;51.230;-2.322;2022-08-19T21:21:32;5.10;;;0.80;;
65077;SDS011;51672;51.230;-2.322;2022-08-19T21:25:15;6.97;;;1.03;;
65077;SDS011;51672;51.230;-2.322;2022-08-19T21:28:58;8.23;;;1.00;;
65077;SDS011;51672;51.230;-2.322;2022-08-19T21:32:40;7.30;;;1.00;;
65077;SDS011;51672;51.230;-2.322;2022-08-19T21:36:22;6.38;;;1.25;;
65077;SDS011;51672;51.230;-2.322;2022-08-19T21:40:04;11.07;;;1.42;;
65077;SDS011;51672;51.230;-2.322;2022-08-19T21:43:47;8.13;;;1.58;;
65077;SDS011;51672;51.230;-2.322;2022-08-19T21:47:29;8.73;;;2.05;;
65077;SDS011;51672;51.230;-2.322;2022-08-19T21:51:11;7.00;;;1.30;;
65077;SDS011;51672;51.230;-2.322;2022-08-19T21:54:54;5.95;;;0.98;;
65077;SDS011;51672;51.230;-2.322;2022-08-19T21:58:36;8.25;;;1.20;;
65077;SDS011;51672;51.230;-2.322;2022-08-19T22:02:18;7.73;;;1.10;;
65077;SDS011;51672;51.230;-2.322;2022-08-19T22:06:02;7.35;;;0.90;;
65077;SDS011;51672;51.230;-2.322;2022-08-19T22:09:45;7.15;;;1.15;;
65077;SDS011;51672;51.230;-2.322;2022-08-19T22:13:29;6.85;;;1.08;;
65077;SDS011;51672;51.230;-2.322;2022-08-19T22:17:19;5.40;;;1.05;;
65077;SDS011;51672;51.230;-2.322;2022-08-19T22:21:03;7.63;;;1.50;;
65077;SDS011;51672;51.230;-2.322;2022-08-19T22:24:52;10.40;;;1.95;;
65077;SDS011;51672;51.230;-2.322;2022-08-19T22:28:40;5.07;;;0.63;;
65077;SDS011;51672;51.230;-2.322;2022-08-19T22:32:23;6.32;;;0.85;;
65077;SDS011;51672;51.230;-2.322;2022-08-19T22:36:09;4.18;;;0.70;;
65077;SDS011;51672;51.230;-2.322;2022-08-19T22:39:50;8.23;;;1.10;;
65077;SDS011;51672;51.230;-2.322;2022-08-19T22:43:32;10.40;;;0.85;;
65077;SDS011;51672;51.230;-2.322;2022-08-19T22:47:17;9.23;;;0.88;;
65077;SDS011;51672;51.230;-2.322;2022-08-19T22:50:59;8.25;;;0.90;;
65077;SDS011;51672;51.230;-2.322;2022-08-19T22:55:00;11.45;;;0.93;;
65077;SDS011;51672;51.230;-2.322;2022-08-19T22:58:46;7.65;;;0.90;;
65077;SDS011;51672;51.230;-2.322;2022-08-19T23:02:32;4.88;;;1.10;;
65077;SDS011;51672;51.230;-2.322;2022-08-19T23:06:32;7.03;;;1.20;;
65077;SDS011;51672;51.230;-2.322;2022-08-19T23:10:18;5.47;;;1.38;;
65077;SDS011;51672;51.230;-2.322;2022-08-19T23:14:08;8.30;;;1.42;;
65077;SDS011;51672;51.230;-2.322;2022-08-19T23:17:52;10.40;;;2.00;;
65077;SDS011;51672;51.230;-2.322;2022-08-19T23:21:36;5.63;;;1.60;;
65077;SDS011;51672;51.230;-2.322;2022-08-19T23:25:21;7.65;;;1.63;;
65077;SDS011;51672;51.230;-2.322;2022-08-19T23:29:08;6.00;;;1.00;;
65077;SDS011;51672;51.230;-2.322;2022-08-19T23:33:24;8.73;;;1.38;;
65077;SDS011;51672;51.230;-2.322;2022-08-19T23:37:28;9.20;;;2.00;;
65077;SDS011;51672;51.230;-2.322;2022-08-19T23:41:11;9.57;;;2.30;;
65077;SDS011;51672;51.230;-2.322;2022-08-19T23:44:58;10.13;;;2.60;;
65077;SDS011;51672;51.230;-2.322;2022-08-19T23:48:44;9.70;;;2.30;;
65077;SDS011;51672;51.230;-2.322;2022-08-19T23:52:26;8.68;;;2.90;;
65077;SDS011;51672;51.230;-2.322;2022-08-19T23:56:10;9.83;;;2.67;;
65077;SDS011;51672;51.230;-2.322;2022-08-19T23:59:52;10.45;;;2.90;;
